Hauptseite
METAR-TAF:

METAR-TAF

Flughäfen :

Gibraltar, Gibraltar

Flughafen Gibraltar

Breite: 36-09N, Länge: 005-21W, Höhe: 5 m

Beobachtung

Neuester Wetterbericht von vor 52 Minuten, um 13:50 UTC
Wind 10 kt aus Süd/Südwest
Temperatur 28°C
Luftfeuchtigkeit 51%
Luftdruck 1013 hPa
Sichtweite 10 km oder mehr
keine Wolken unter 1500 m und keine Kumulonimbus oder Gewitterwolken

METAR: LXGB 221350Z 21010KT CAVOK 28/17 Q1013 NOSIG

Zeit: 16:42 (14:42 UTC)

Prognose

Neuester Wetterbericht von vor 1 Stunde und 18 Minuten, um 13:24 UTC
Gültige Prognose vom 22 um 15 UTC bis 22 um 22 UTC
Wind 14 kt aus Süd/Südwest
Sichtweite 10 km oder mehr
keine Wolken unter 1500 m und keine Kumulonimbus oder Gewitterwolken
Wahrscheinlichkeit 40%
vom 22 um 15 UTC bis 22 um 22 UTC
Wind 15 kt aus West

TAF: LXGB 221324Z 2215/2222 21014KT CAVOK 520001 PROB40 2215/2222 26015KT

Wetterbeobachtungen und Prognosen von mehr als 4000 Flughäfen (METAR und TAF Bericht).

Die verfügbaren Stationen werden durch gelbe und rote Markierungen auf der Karte dargestellt.

Führen Sie die Maus auf sie, um den Namen der Station zu sehen.

Darauf klicken, um die Beobachtung von Wetterbeobachtungen und Prognosen zu sehen.

Um die Karte zu ändern : klicken Sie auf den grünen Tasten mit einem schwarzen Kreuz Zum Vergrößern, auf den grünen Button mit einem Gedankenstrich zu verkleinern, oder auf die grünen Pfeile für benachbarte Karten.


METAR-TAF: